Time;durP1;ratioP1;P1;durP2;ratioP2;P2;SDS_P1;SDS_P2;PMS_P1;PMS_P2;Temp;Humidity;BMP_temperature;BMP_pressure;BME280_temperature;BME280_humidity;BME280_pressure;Samples;Min_cycle;Max_cycle;Signal;HPM_P1;HPM_P2
2022/03/30 00:00:39;;;;;;;39.03;21.33;;;13.70;98.90;;;;;;5076512;28;20024;-65
2022/03/30 00:03:04;;;;;;;39.55;22.20;;;13.70;99.90;;;;;;5076341;28;20406;-65
2022/03/30 00:05:30;;;;;;;47.33;22.70;;;13.60;99.90;;;;;;5058600;28;20440;-66
2022/03/30 00:07:56;;;;;;;45.75;25.30;;;13.50;99.90;;;;;;5076478;28;20298;-66
2022/03/30 00:10:22;;;;;;;49.90;24.48;;;13.50;99.90;;;;;;5058199;28;20028;-66
2022/03/30 00:12:48;;;;;;;40.90;23.98;;;13.50;99.90;;;;;;5075927;28;20450;-66
2022/03/30 00:15:15;;;;;;;45.55;24.13;;;13.40;99.90;;;;;;5075755;28;20039;-66
2022/03/30 00:17:41;;;;;;;44.80;23.27;;;13.40;99.90;;;;;;5075969;28;20536;-66
2022/03/30 00:20:07;;;;;;;42.28;24.00;;;13.40;99.90;;;;;;5076032;28;20032;-65
2022/03/30 00:22:33;;;;;;;42.80;23.35;;;13.40;99.90;;;;;;5058051;28;20040;-65
2022/03/30 00:24:58;;;;;;;42.00;23.25;;;13.40;99.90;;;;;;5076825;28;20055;-65
2022/03/30 00:27:24;;;;;;;42.97;23.73;;;13.40;99.90;;;;;;5059317;28;20039;-64
2022/03/30 00:29:49;;;;;;;55.27;29.33;;;13.40;99.90;;;;;;5076221;28;20020;-65
2022/03/30 00:32:15;;;;;;;44.70;23.73;;;13.60;99.90;;;;;;5076304;28;20279;-65
2022/03/30 00:34:41;;;;;;;50.80;26.73;;;13.60;99.90;;;;;;5076677;28;20016;-65
2022/03/30 00:37:08;;;;;;;43.70;25.45;;;13.40;99.90;;;;;;5076247;28;20056;-65
2022/03/30 00:39:33;;;;;;;38.42;22.13;;;13.20;99.90;;;;;;5075343;28;20100;-66
2022/03/30 00:41:59;;;;;;;42.83;21.98;;;13.10;99.90;;;;;;5075392;28;20133;-66
2022/03/30 00:44:25;;;;;;;38.08;21.02;;;13.10;99.90;;;;;;5056410;28;20042;-65
2022/03/30 00:46:51;;;;;;;44.72;22.45;;;13.10;99.90;;;;;;5075998;28;20475;-65
2022/03/30 00:49:17;;;;;;;47.70;24.00;;;13.20;99.90;;;;;;5076063;28;20032;-65
2022/03/30 00:51:43;;;;;;;45.30;24.53;;;12.90;99.90;;;;;;5075292;28;20020;-65
2022/03/30 00:54:09;;;;;;;46.85;25.20;;;12.80;99.90;;;;;;5075180;28;20072;-65
2022/03/30 00:56:39;;;;;;;47.20;23.45;;;12.70;99.90;;;;;;5074959;28;20059;-65
2022/03/30 00:59:05;;;;;;;42.88;23.40;;;12.60;99.90;;;;;;5074815;28;20050;-65
2022/03/30 01:01:34;;;;;;;53.00;27.00;;;12.60;99.90;;;;;;5074836;28;20021;-65
2022/03/30 01:04:04;;;;;;;43.83;24.20;;;12.70;99.90;;;;;;5075021;28;20017;-65
2022/03/30 01:06:30;;;;;;;45.53;24.38;;;12.70;99.90;;;;;;5074611;28;20100;-65
2022/03/30 01:08:56;;;;;;;43.20;24.00;;;12.70;99.90;;;;;;5074629;28;20106;-65
2022/03/30 01:11:22;;;;;;;42.47;22.58;;;12.80;99.90;;;;;;5074987;28;20016;-66
2022/03/30 01:13:48;;;;;;;48.00;22.80;;;12.70;99.90;;;;;;5074877;28;20073;-66
2022/03/30 01:16:15;;;;;;;46.85;24.10;;;12.60;99.90;;;;;;5074710;28;20035;-66
2022/03/30 01:18:41;;;;;;;44.35;22.98;;;12.60;99.90;;;;;;5074525;28;20031;-64
2022/03/30 01:21:08;;;;;;;45.55;22.75;;;12.50;99.90;;;;;;5074716;28;20025;-65
2022/03/30 01:23:35;;;;;;;43.28;22.50;;;12.50;99.90;;;;;;5074646;28;20491;-65
2022/03/30 01:26:03;;;;;;;43.08;22.40;;;12.50;99.90;;;;;;5056315;28;20502;-65
2022/03/30 01:28:31;;;;;;;42.85;22.38;;;12.40;99.90;;;;;;5056358;28;20024;-66
2022/03/30 01:33:45;;;;;;;38.85;21.77;;;12.40;99.90;;;;;;5075612;28;20036;-66
2022/03/30 01:36:12;;;;;;;45.90;21.15;;;12.50;99.90;;;;;;5074411;28;20017;-66
2022/03/30 01:38:38;;;;;;;43.33;21.75;;;12.40;99.90;;;;;;5073967;28;20048;-65
2022/03/30 01:41:03;;;;;;;40.80;21.67;;;12.40;99.90;;;;;;5055926;28;20072;-65
2022/03/30 01:43:29;;;;;;;45.03;21.67;;;12.30;99.90;;;;;;5056204;28;20043;-65
2022/03/30 01:45:55;;;;;;;42.17;21.23;;;12.20;99.90;;;;;;5074119;28;20040;-65
2022/03/30 01:48:21;;;;;;;41.05;22.10;;;12.10;99.90;;;;;;5073759;28;20481;-65
2022/03/30 01:50:47;;;;;;;38.53;20.10;;;12.10;99.90;;;;;;5073763;28;20029;-66
2022/03/30 01:53:13;;;;;;;43.55;22.63;;;12.00;99.90;;;;;;5073872;28;20066;-66
2022/03/30 01:55:39;;;;;;;41.13;20.95;;;12.00;99.90;;;;;;5073896;28;20051;-66
2022/03/30 01:58:05;;;;;;;42.22;22.17;;;12.00;99.90;;;;;;5055721;28;20063;-66
2022/03/30 02:00:31;;;;;;;42.10;19.77;;;12.00;99.90;;;;;;5073615;28;20060;-66
2022/03/30 02:02:56;;;;;;;35.85;20.83;;;11.90;99.90;;;;;;5056385;28;20031;-66
2022/03/30 02:05:22;;;;;;;39.50;20.13;;;11.90;99.90;;;;;;5055686;28;20060;-66
2022/03/30 02:07:48;;;;;;;39.42;20.73;;;11.90;99.90;;;;;;5055425;28;20024;-66
2022/03/30 02:10:14;;;;;;;34.33;19.42;;;11.90;99.90;;;;;;5073809;28;20099;-64
2022/03/30 02:12:40;;;;;;;;;;;11.90;99.90;;;;;;5073819;28;20450;-64
2022/03/30 02:15:07;;;;;;;34.25;19.20;;;11.90;99.90;;;;;;5073363;28;19952;-64
2022/03/30 02:17:33;;;;;;;35.83;18.98;;;11.90;99.90;;;;;;5055312;28;20040;-64
2022/03/30 02:19:59;;;;;;;34.58;18.45;;;11.90;99.90;;;;;;5055519;28;20083;-66
2022/03/30 02:22:25;;;;;;;35.17;18.73;;;12.00;99.90;;;;;;5073193;28;20032;-66
2022/03/30 02:24:51;;;;;;;31.47;18.23;;;12.00;99.90;;;;;;5073449;28;20029;-66
2022/03/30 02:27:19;;;;;;;;;;;12.10;99.90;;;;;;5073632;28;20656;-66
2022/03/30 02:29:52;;;;;;;32.25;19.42;;;12.10;99.90;;;;;;5073174;28;19938;-66
2022/03/30 02:32:18;;;;;;;34.47;18.70;;;12.30;99.90;;;;;;5073317;28;20024;-66
2022/03/30 02:34:44;;;;;;;33.97;19.10;;;12.60;99.90;;;;;;5073152;28;20120;-66
2022/03/30 02:37:11;;;;;;;35.15;19.17;;;12.60;99.90;;;;;;5055007;28;20033;-66
2022/03/30 02:39:37;;;;;;;30.25;18.67;;;12.70;99.90;;;;;;5073255;28;20020;-66
2022/03/30 02:42:03;;;;;;;35.65;18.95;;;12.60;99.90;;;;;;5073174;28;20398;-66
2022/03/30 02:44:29;;;;;;;32.53;18.30;;;12.80;99.90;;;;;;5055377;28;20032;-66
2022/03/30 02:46:55;;;;;;;40.28;18.95;;;12.70;99.90;;;;;;5073166;28;20139;-66
2022/03/30 02:49:21;;;;;;;33.15;19.30;;;12.90;99.90;;;;;;5054616;28;20036;-66
2022/03/30 02:51:46;;;;;;;33.58;18.25;;;12.90;99.90;;;;;;5073128;28;20029;-66
2022/03/30 02:54:12;;;;;;;30.25;16.67;;;12.80;99.90;;;;;;5072851;28;20024;-66
2022/03/30 02:56:38;;;;;;;32.67;17.90;;;12.70;99.90;;;;;;5072899;28;20025;-66
2022/03/30 02:59:04;;;;;;;29.85;17.48;;;12.60;99.90;;;;;;5072818;28;20501;-66
2022/03/30 03:01:29;;;;;;;35.58;18.75;;;12.40;99.90;;;;;;5073139;28;20029;-66
2022/03/30 03:03:55;;;;;;;34.07;17.70;;;12.30;99.90;;;;;;5054867;28;20028;-66
2022/03/30 03:06:21;;;;;;;31.60;18.17;;;12.30;99.90;;;;;;5072985;28;20259;-66
2022/03/30 03:08:46;;;;;;;33.57;18.33;;;12.40;99.90;;;;;;5076735;28;20278;-65
2022/03/30 03:11:12;;;;;;;34.20;18.75;;;12.50;99.90;;;;;;5076745;28;20056;-65
2022/03/30 03:13:38;;;;;;;39.65;19.42;;;12.50;99.90;;;;;;5076677;28;20032;-65
2022/03/30 03:16:05;;;;;;;32.93;19.07;;;12.50;99.90;;;;;;5077168;28;20459;-65
2022/03/30 03:18:30;;;;;;;32.65;19.40;;;12.40;99.90;;;;;;5076697;28;20021;-65
2022/03/30 03:20:56;;;;;;;39.17;20.73;;;12.20;99.90;;;;;;5077258;28;20078;-65
2022/03/30 03:23:21;;;;;;;35.22;19.20;;;12.10;99.90;;;;;;5076551;28;20027;-64
2022/03/30 03:25:47;;;;;;;30.50;19.43;;;12.10;99.90;;;;;;5076489;28;20397;-65
2022/03/30 03:28:14;;;;;;;34.95;21.15;;;12.10;99.90;;;;;;5058258;28;20475;-65
2022/03/30 03:30:40;;;;;;;35.25;19.75;;;12.10;99.90;;;;;;5076791;28;20405;-65
2022/03/30 03:33:06;;;;;;;;;;;12.10;99.90;;;;;;5076828;28;20032;-65
2022/03/30 03:35:32;;;;;;;36.20;20.00;;;12.00;99.90;;;;;;5077608;28;20354;-65
2022/03/30 03:37:59;;;;;;;46.38;22.08;;;12.00;99.90;;;;;;5078096;28;20033;-64
2022/03/30 03:40:25;;;;;;;37.03;20.98;;;11.90;99.90;;;;;;5076331;28;20390;-64
2022/03/30 03:42:51;;;;;;;37.92;21.15;;;11.80;99.90;;;;;;5076491;28;20029;-65
2022/03/30 03:45:17;;;;;;;41.10;21.60;;;11.80;99.90;;;;;;5076142;28;20040;-65
2022/03/30 03:47:43;;;;;;;39.80;21.92;;;11.80;99.90;;;;;;5075967;28;20274;-64
2022/03/30 03:50:10;;;;;;;41.60;23.67;;;11.70;99.90;;;;;;5076580;28;20039;-64
2022/03/30 03:52:36;;;;;;;43.15;23.88;;;11.70;99.90;;;;;;5076318;28;20024;-64
2022/03/30 03:55:03;;;;;;;45.27;24.03;;;11.70;99.90;;;;;;5076072;28;20023;-64
2022/03/30 03:57:29;;;;;;;48.72;22.63;;;11.60;99.90;;;;;;5076045;28;20551;-64
2022/03/30 03:59:55;;;;;;;47.08;24.58;;;11.50;99.90;;;;;;5076229;28;20028;-63
2022/03/30 04:02:21;;;;;;;49.50;23.60;;;11.40;99.90;;;;;;5077036;28;20036;-64
2022/03/30 04:04:47;;;;;;;48.30;24.35;;;11.40;99.90;;;;;;5077353;28;20447;-65
2022/03/30 04:07:12;;;;;;;40.17;21.77;;;11.40;99.90;;;;;;5076047;28;20490;-64
2022/03/30 04:09:38;;;;;;;47.35;23.67;;;11.20;99.90;;;;;;5075743;28;20042;-63
2022/03/30 04:12:05;;;;;;;38.47;22.08;;;11.10;99.90;;;;;;5077566;28;20051;-64
2022/03/30 04:14:30;;;;;;;36.80;20.20;;;11.00;99.90;;;;;;5076268;28;20029;-65
2022/03/30 04:16:56;;;;;;;35.27;19.90;;;11.00;99.90;;;;;;5058084;28;20020;-65
2022/03/30 04:19:22;;;;;;;33.03;18.90;;;10.90;99.90;;;;;;5075450;28;20114;-64
2022/03/30 04:21:47;;;;;;;39.73;19.93;;;10.90;99.90;;;;;;5075871;28;20294;-65
2022/03/30 04:24:13;;;;;;;42.40;20.40;;;10.90;99.90;;;;;;5075639;28;20028;-65
2022/03/30 04:26:39;;;;;;;33.53;19.50;;;10.80;99.90;;;;;;5075217;28;20037;-65
2022/03/30 04:29:06;;;;;;;36.00;18.85;;;10.70;99.90;;;;;;5075404;28;20025;-65
2022/03/30 04:31:31;;;;;;;;;;;10.70;99.90;;;;;;5057692;28;20429;-65
2022/03/30 04:33:57;;;;;;;44.20;19.95;;;10.60;99.90;;;;;;5075142;28;19905;-65
2022/03/30 04:36:23;;;;;;;40.80;20.43;;;10.60;99.90;;;;;;5075239;28;20052;-63
2022/03/30 04:38:49;;;;;;;46.15;20.63;;;10.60;99.90;;;;;;5075390;28;20032;-64
2022/03/30 04:41:14;;;;;;;38.47;19.00;;;10.50;99.90;;;;;;5075668;28;20442;-65
2022/03/30 04:43:40;;;;;;;44.30;20.60;;;10.60;99.90;;;;;;5056852;28;20266;-64
2022/03/30 04:46:06;;;;;;;39.63;21.37;;;10.50;99.90;;;;;;5075234;28;20044;-64
2022/03/30 04:48:32;;;;;;;38.92;21.15;;;10.50;99.90;;;;;;5075024;28;20029;-64
2022/03/30 04:50:57;;;;;;;37.45;20.95;;;10.40;99.90;;;;;;5075442;28;20368;-64
2022/03/30 04:53:23;;;;;;;39.83;20.52;;;10.30;99.90;;;;;;5075221;28;20033;-63
2022/03/30 04:55:49;;;;;;;42.43;20.50;;;10.30;99.90;;;;;;5074993;28;20036;-64
2022/03/30 04:58:15;;;;;;;38.65;20.10;;;10.20;99.90;;;;;;5074930;28;20032;-63
2022/03/30 05:00:41;;;;;;;36.88;19.85;;;10.30;99.90;;;;;;5074789;28;20029;-63
2022/03/30 05:03:07;;;;;;;37.25;21.00;;;10.30;99.90;;;;;;5074929;28;20398;-65
2022/03/30 05:05:32;;;;;;;40.17;19.83;;;10.30;99.90;;;;;;5056696;28;20115;-63
2022/03/30 05:07:58;;;;;;;40.73;20.13;;;10.40;99.90;;;;;;5075054;28;20027;-64
2022/03/30 05:10:24;;;;;;;40.57;20.80;;;10.30;99.90;;;;;;5074973;28;20028;-63
2022/03/30 05:12:50;;;;;;;43.70;20.48;;;10.20;99.90;;;;;;5074561;28;20119;-64
2022/03/30 05:15:16;;;;;;;40.92;20.88;;;10.30;99.90;;;;;;5074949;28;20490;-64
2022/03/30 05:17:44;;;;;;;43.15;21.02;;;10.30;99.90;;;;;;5057144;28;20079;-64
2022/03/30 05:20:12;;;;;;;41.10;20.40;;;10.20;99.90;;;;;;5075098;28;20036;-63
2022/03/30 05:22:37;;;;;;;42.20;20.80;;;10.30;99.90;;;;;;5074810;28;20089;-65
2022/03/30 05:25:04;;;;;;;40.90;21.27;;;10.40;99.90;;;;;;5057692;28;20021;-64
2022/03/30 05:27:30;;;;;;;44.30;21.80;;;10.40;99.90;;;;;;5075160;28;20275;-64
2022/03/30 05:29:55;;;;;;;43.25;21.52;;;10.50;99.90;;;;;;5074976;28;20107;-63
2022/03/30 05:32:21;;;;;;;43.07;19.90;;;10.40;99.90;;;;;;5074982;28;20483;-62
2022/03/30 05:34:46;;;;;;;38.90;20.67;;;10.40;99.90;;;;;;5075205;28;20452;-65
2022/03/30 05:37:12;;;;;;;64.90;31.55;;;10.50;99.90;;;;;;5074625;28;20032;-63
2022/03/30 05:39:41;;;;;;;57.42;27.92;;;10.50;99.90;;;;;;5074546;28;20028;-63
2022/03/30 05:42:12;;;;;;;43.13;21.75;;;10.40;99.90;;;;;;5074285;28;20048;-64
2022/03/30 05:44:38;;;;;;;43.13;21.27;;;10.50;99.90;;;;;;5074065;28;20086;-64
2022/03/30 05:47:07;;;;;;;38.85;19.20;;;10.40;99.90;;;;;;5074107;28;20037;-64
2022/03/30 05:49:33;;;;;;;40.75;18.45;;;10.40;99.90;;;;;;5055868;28;20090;-63
2022/03/30 05:51:58;;;;;;;45.60;20.63;;;10.40;99.90;;;;;;5074544;28;20096;-64
2022/03/30 05:54:24;;;;;;;34.77;16.83;;;10.40;99.90;;;;;;5075034;28;20063;-61
2022/03/30 05:57:02;;;;;;;32.17;18.50;;;10.40;99.90;;;;;;5075335;28;20017;-63
2022/03/30 05:59:29;;;;;;;31.75;17.08;;;10.40;99.90;;;;;;5075179;28;20021;-63
2022/03/30 06:01:55;;;;;;;40.05;19.35;;;10.40;99.90;;;;;;5057179;28;20386;-64
2022/03/30 06:04:21;;;;;;;37.03;17.63;;;10.40;99.90;;;;;;5074692;28;20095;-64
2022/03/30 06:06:46;;;;;;;38.13;18.47;;;10.40;99.90;;;;;;5075325;28;20074;-63
2022/03/30 06:09:12;;;;;;;33.67;16.07;;;10.50;99.90;;;;;;5074723;28;20115;-60
2022/03/30 06:11:38;;;;;;;38.45;17.88;;;10.50;99.90;;;;;;5074758;28;20395;-63
2022/03/30 06:14:03;;;;;;;42.70;20.23;;;10.60;99.90;;;;;;5075240;28;20459;-63
2022/03/30 06:16:29;;;;;;;43.80;17.83;;;10.70;99.90;;;;;;5075189;28;20153;-63
2022/03/30 06:18:55;;;;;;;33.55;17.67;;;10.80;99.90;;;;;;5074809;28;20030;-63
2022/03/30 06:21:21;;;;;;;37.10;17.05;;;11.10;99.90;;;;;;5074551;28;20040;-63
2022/03/30 06:23:48;;;;;;;42.10;22.95;;;11.10;99.90;;;;;;5074422;28;20055;-64
2022/03/30 06:26:14;;;;;;;38.25;17.17;;;11.00;99.90;;;;;;5074917;28;20051;-63
2022/03/30 06:28:40;;;;;;;33.85;15.20;;;11.00;99.90;;;;;;5056512;28;20036;-63
2022/03/30 06:31:05;;;;;;;36.73;15.60;;;10.90;99.90;;;;;;5074613;28;20040;-63
2022/03/30 06:33:31;;;;;;;36.20;15.65;;;11.00;99.90;;;;;;5074454;28;20031;-63
2022/03/30 06:35:57;;;;;;;29.90;15.03;;;10.90;99.90;;;;;;5074661;28;20501;-64
2022/03/30 06:38:23;;;;;;;32.47;14.85;;;11.00;99.90;;;;;;5073830;28;20262;-63
2022/03/30 06:40:49;;;;;;;31.90;13.67;;;11.00;99.90;;;;;;5073373;28;20039;-64
2022/03/30 06:43:15;;;;;;;29.75;14.63;;;11.00;99.90;;;;;;5073375;28;20024;-64
2022/03/30 06:45:41;;;;;;;33.40;14.57;;;11.10;99.90;;;;;;5073542;28;20039;-62
2022/03/30 06:48:07;;;;;;;36.53;15.00;;;11.10;99.90;;;;;;5073301;28;20384;-62
2022/03/30 06:50:33;;;;;;;30.55;13.88;;;11.10;99.90;;;;;;5073770;28;20044;-63
2022/03/30 06:52:59;;;;;;;31.27;14.23;;;11.10;99.90;;;;;;5073155;28;20017;-63
2022/03/30 06:55:25;;;;;;;30.83;12.18;;;11.10;99.90;;;;;;5073259;28;20052;-64
2022/03/30 06:57:51;;;;;;;24.13;12.95;;;11.10;99.90;;;;;;5072974;28;20025;-63
2022/03/30 07:00:17;;;;;;;30.57;12.83;;;11.10;99.90;;;;;;5072920;28;20078;-63
2022/03/30 07:02:43;;;;;;;26.92;11.75;;;11.10;99.90;;;;;;5073001;28;20021;-63
2022/03/30 07:05:10;;;;;;;20.90;10.85;;;11.30;99.90;;;;;;5073365;28;20059;-63
2022/03/30 07:10:23;;;;;;;23.58;11.85;;;11.20;99.90;;;;;;5073263;28;20004;-63
2022/03/30 07:12:50;;;;;;;29.45;11.88;;;11.20;99.90;;;;;;5072926;28;20039;-63
2022/03/30 07:15:18;;;;;;;24.63;10.32;;;11.10;99.90;;;;;;5072757;28;20027;-64
2022/03/30 07:17:52;;;;;;;24.05;11.32;;;11.10;99.90;;;;;;5072528;28;20032;-63
2022/03/30 07:20:20;;;;;;;25.95;11.93;;;11.00;99.90;;;;;;5072904;28;20108;-60
2022/03/30 07:22:47;;;;;;;29.58;13.18;;;11.00;99.90;;;;;;5072773;28;20082;-63
2022/03/30 07:25:14;;;;;;;26.92;13.73;;;11.00;99.90;;;;;;5073046;28;20111;-63
2022/03/30 07:27:41;;;;;;;32.35;13.15;;;11.00;99.90;;;;;;5072557;28;20034;-63
2022/03/30 07:30:08;;;;;;;31.63;13.65;;;11.00;99.90;;;;;;5072928;28;20035;-63
2022/03/30 07:32:36;;;;;;;29.80;13.65;;;11.10;99.90;;;;;;5072726;28;20025;-63
2022/03/30 07:35:03;;;;;;;35.08;16.33;;;11.10;99.90;;;;;;5073012;28;20031;-63
2022/03/30 07:37:29;;;;;;;44.72;18.98;;;11.10;99.90;;;;;;5072673;28;20035;-64
2022/03/30 07:39:54;;;;;;;32.63;19.67;;;11.20;99.90;;;;;;5072673;28;20479;-63
2022/03/30 07:42:20;;;;;;;38.10;20.73;;;11.20;99.90;;;;;;5072588;28;20028;-65
2022/03/30 07:44:46;;;;;;;37.95;21.50;;;11.20;99.90;;;;;;5054409;28;20540;-66
2022/03/30 07:47:11;;;;;;;41.10;22.20;;;11.10;99.90;;;;;;5054392;28;20060;-64
2022/03/30 07:49:37;;;;;;;45.88;23.33;;;11.00;99.90;;;;;;5072234;28;20028;-65
2022/03/30 07:52:04;;;;;;;44.90;26.45;;;11.00;99.90;;;;;;5072043;28;20047;-64
2022/03/30 07:54:30;;;;;;;51.90;25.98;;;10.90;99.90;;;;;;5075886;28;20016;-64
2022/03/30 07:56:55;;;;;;;57.03;29.00;;;10.90;99.90;;;;;;5075987;28;20119;-64
2022/03/30 07:59:21;;;;;;;57.53;28.40;;;10.80;99.90;;;;;;5075924;28;20036;-65
2022/03/30 08:01:46;;;;;;;57.20;29.60;;;10.80;99.90;;;;;;5076147;28;20060;-65
2022/03/30 08:04:12;;;;;;;54.60;30.23;;;10.70;99.90;;;;;;5075962;28;20062;-65
2022/03/30 08:06:38;;;;;;;59.75;30.50;;;10.70;99.90;;;;;;5075734;28;20020;-65
2022/03/30 08:09:04;;;;;;;48.67;26.27;;;10.70;99.90;;;;;;5057554;28;20390;-63
2022/03/30 08:11:30;;;;;;;40.53;22.50;;;10.80;99.90;;;;;;5075803;28;20470;-65
2022/03/30 08:13:56;;;;;;;42.78;21.80;;;10.50;99.90;;;;;;5075535;28;20425;-65
2022/03/30 08:16:22;;;;;;;36.00;20.85;;;10.30;99.90;;;;;;5075409;28;20031;-64
2022/03/30 08:18:48;;;;;;;40.97;22.70;;;10.10;99.90;;;;;;5075526;28;20033;-65
2022/03/30 08:23:58;;;;;;;47.45;24.55;;;9.70;99.90;;;;;;5075686;28;20162;-65
2022/03/30 08:26:24;;;;;;;43.65;22.75;;;9.60;99.90;;;;;;5075402;28;20052;-67
2022/03/30 08:28:50;;;;;;;45.42;22.90;;;9.50;99.90;;;;;;5075901;28;20024;-66
2022/03/30 08:31:16;;;;;;;43.87;23.13;;;9.50;99.90;;;;;;5076051;28;20028;-66
2022/03/30 08:33:42;;;;;;;47.15;24.73;;;9.40;99.90;;;;;;5075507;28;20100;-66
2022/03/30 08:36:08;;;;;;;46.93;23.87;;;9.40;99.90;;;;;;5057480;28;20071;-66
2022/03/30 08:38:34;;;;;;;46.97;24.57;;;9.40;99.90;;;;;;5075327;28;20267;-65
2022/03/30 08:41:00;;;;;;;51.97;25.70;;;9.30;99.90;;;;;;5075470;28;20108;-65
2022/03/30 08:43:26;;;;;;;69.38;27.48;;;9.30;99.90;;;;;;5075643;28;20112;-64
2022/03/30 08:45:55;;;;;;;;;;;9.30;99.90;;;;;;5076113;28;20032;-64
2022/03/30 08:48:20;;;;;;;58.20;27.05;;;9.30;99.90;;;;;;5075102;28;19938;-65
2022/03/30 08:50:46;;;;;;;55.20;24.33;;;9.30;99.90;;;;;;5075736;28;20072;-65
2022/03/30 08:53:13;;;;;;;52.58;27.38;;;9.20;99.90;;;;;;5075167;28;20024;-64
2022/03/30 08:55:39;;;;;;;57.10;28.98;;;9.20;99.90;;;;;;5075207;28;20028;-65
2022/03/30 08:58:05;;;;;;;55.72;27.48;;;9.20;99.90;;;;;;5074948;28;20025;-64
2022/03/30 09:00:34;;;;;;;55.55;28.98;;;9.30;99.90;;;;;;5075616;28;20070;-66
2022/03/30 09:03:00;;;;;;;64.57;29.05;;;9.30;99.90;;;;;;5074683;28;20111;-66
2022/03/30 09:05:46;;;;;;;58.92;27.33;;;9.30;99.90;;;;;;5074264;28;20036;-65
2022/03/30 09:08:21;;;;;;;62.10;28.60;;;9.40;99.90;;;;;;5074485;28;20036;-65
2022/03/30 09:10:50;;;;;;;62.40;30.20;;;9.30;99.90;;;;;;5075193;28;20027;-65
2022/03/30 09:13:17;;;;;;;57.40;29.65;;;9.30;99.90;;;;;;5074968;28;20032;-65
2022/03/30 09:15:44;;;;;;;66.10;30.80;;;9.30;99.90;;;;;;5075330;28;20479;-65
2022/03/30 09:18:11;;;;;;;67.70;32.25;;;9.20;99.90;;;;;;5075463;28;20078;-66
2022/03/30 09:20:38;;;;;;;;;;;9.20;99.90;;;;;;5097779;22;20043;-63
2022/03/30 09:23:05;;;;;;;63.38;29.20;;;9.10;99.90;;;;;;5075440;28;19973;-63
2022/03/30 09:25:31;;;;;;;67.28;31.70;;;9.10;99.90;;;;;;5056990;28;20044;-63
2022/03/30 09:27:59;;;;;;;68.28;31.95;;;9.10;99.90;;;;;;5056967;28;20031;-65
2022/03/30 09:30:26;;;;;;;66.00;32.33;;;9.20;99.90;;;;;;5057346;28;20028;-64
2022/03/30 09:32:55;;;;;;;76.57;33.60;;;9.20;99.90;;;;;;5057497;28;20016;-65
2022/03/30 09:35:25;;;;;;;68.80;33.25;;;9.20;99.90;;;;;;5075966;28;20020;-64
2022/03/30 09:38:08;;;;;;;68.85;32.75;;;9.30;99.90;;;;;;5057181;28;20025;-64
2022/03/30 09:40:46;;;;;;;67.47;32.83;;;9.30;99.90;;;;;;5057079;28;20035;-63
2022/03/30 09:43:41;;;;;;;67.70;33.08;;;9.30;99.90;;;;;;5058045;28;20039;-65
2022/03/30 09:46:11;;;;;;;85.88;35.15;;;9.30;99.90;;;;;;5054247;28;20044;-64
2022/03/30 09:48:54;;;;;;;72.15;34.10;;;9.20;99.90;;;;;;5056603;28;20029;-64
2022/03/30 09:51:24;;;;;;;64.00;31.83;;;9.20;99.90;;;;;;5056774;28;20025;-63
2022/03/30 09:53:50;;;;;;;66.43;35.13;;;9.10;99.90;;;;;;5056692;28;20020;-65
2022/03/30 09:56:18;;;;;;;71.35;33.30;;;9.10;99.90;;;;;;5075022;28;20017;-64
2022/03/30 09:58:45;;;;;;;65.75;30.67;;;9.00;99.90;;;;;;5075011;28;20035;-64
2022/03/30 10:01:21;;;;;;;69.90;34.00;;;9.00;99.90;;;;;;5056871;28;20506;-61
2022/03/30 10:03:49;;;;;;;77.35;34.63;;;8.90;99.90;;;;;;5074250;28;20471;-61
2022/03/30 10:06:18;;;;;;;73.05;33.53;;;8.90;99.90;;;;;;5056832;28;20030;-60
2022/03/30 10:08:45;;;;;;;68.53;32.83;;;9.00;99.90;;;;;;5073927;28;20032;-62
2022/03/30 10:11:15;;;;;;;72.75;33.22;;;9.00;99.90;;;;;;5073863;28;20412;-62
2022/03/30 10:13:42;;;;;;;77.18;35.00;;;9.00;99.90;;;;;;5056186;28;20028;-64
2022/03/30 10:16:08;;;;;;;73.07;33.97;;;8.90;99.90;;;;;;5074440;28;20021;-62
2022/03/30 10:18:35;;;;;;;71.43;35.60;;;9.00;99.90;;;;;;5073587;28;20025;-62
2022/03/30 10:21:23;;;;;;;;;;;9.00;99.90;;;;;;5073856;28;20106;-63
2022/03/30 10:24:05;;;;;;;68.22;32.65;;;9.00;99.90;;;;;;5060085;28;19998;-62
2022/03/30 10:27:18;;;;;;;70.57;33.42;;;9.10;99.90;;;;;;5074300;28;20474;-60
2022/03/30 10:29:54;;;;;;;66.72;33.33;;;9.10;99.90;;;;;;4973401;28;20066;-61
2022/03/30 10:32:21;;;;;;;67.90;32.78;;;9.30;99.90;;;;;;4973022;28;20493;-60
2022/03/30 10:35:14;;;;;;;62.67;31.52;;;9.30;99.90;;;;;;4956748;28;20038;-60
2022/03/30 10:37:46;;;;;;;68.03;34.53;;;9.30;99.90;;;;;;4972805;28;20046;-59
2022/03/30 10:40:19;;;;;;;65.30;33.10;;;9.30;99.90;;;;;;4972628;28;20035;-58
2022/03/30 10:42:50;;;;;;;69.03;34.13;;;9.30;99.90;;;;;;4972517;28;20031;-58
2022/03/30 10:45:28;;;;;;;64.28;31.92;;;9.20;99.90;;;;;;4972785;28;20122;-59
2022/03/30 10:48:22;;;;;;;62.67;32.22;;;9.30;99.90;;;;;;4972962;28;20452;-61
2022/03/30 10:50:56;;;;;;;68.00;32.42;;;9.30;99.90;;;;;;4972622;28;20395;-61
2022/03/30 10:53:34;;;;;;;62.67;32.75;;;9.30;99.90;;;;;;4957119;28;20039;-60
2022/03/30 10:56:24;;;;;;;63.95;31.60;;;9.30;99.90;;;;;;4973106;28;20106;-59
2022/03/30 10:58:53;;;;;;;61.65;31.40;;;9.30;99.90;;;;;;4967910;28;20419;-56
2022/03/30 11:01:28;;;;;;;61.75;32.47;;;9.30;99.90;;;;;;5046262;28;20513;-61
2022/03/30 11:03:57;;;;;;;60.63;32.35;;;9.30;99.90;;;;;;5054220;28;20510;-59
2022/03/30 11:06:24;;;;;;;67.90;34.35;;;9.30;99.90;;;;;;5073477;28;20024;-59
2022/03/30 11:08:51;;;;;;;61.00;32.15;;;9.30;99.90;;;;;;5073621;28;20387;-60
2022/03/30 11:11:29;;;;;;;65.47;33.20;;;9.40;99.90;;;;;;5055266;28;20075;-59
2022/03/30 11:14:26;;;;;;;61.22;32.10;;;9.40;99.90;;;;;;5055320;28;20029;-60
2022/03/30 11:16:53;;;;;;;56.75;31.67;;;9.40;99.90;;;;;;5073568;28;20024;-61
2022/03/30 11:19:19;;;;;;;65.00;32.22;;;9.50;99.90;;;;;;5072948;28;20108;-56
2022/03/30 11:22:09;;;;;;;61.50;32.83;;;9.50;99.90;;;;;;5054963;28;20500;-60
2022/03/30 11:24:35;;;;;;;58.78;32.47;;;9.40;99.90;;;;;;5073246;28;20025;-56
2022/03/30 11:27:00;;;;;;;60.35;31.60;;;9.40;99.90;;;;;;5055344;28;20455;-60
2022/03/30 11:29:41;;;;;;;62.00;32.47;;;9.60;99.90;;;;;;5076799;28;20070;-60
2022/03/30 11:32:22;;;;;;;53.45;29.63;;;9.60;99.90;;;;;;5077166;28;20035;-60
2022/03/30 11:34:58;;;;;;;57.88;31.13;;;9.60;99.90;;;;;;5077313;28;20067;-61
2022/03/30 11:37:29;;;;;;;56.40;29.45;;;9.60;99.90;;;;;;5077032;28;20024;-59
2022/03/30 11:40:09;;;;;;;63.33;32.65;;;9.60;99.90;;;;;;5077093;28;20032;-61
2022/03/30 11:42:40;;;;;;;56.65;30.45;;;9.60;99.90;;;;;;5076975;28;20031;-60
2022/03/30 11:45:13;;;;;;;53.45;29.38;;;9.70;99.90;;;;;;5077036;28;20028;-58
2022/03/30 11:47:51;;;;;;;54.53;29.05;;;9.70;99.90;;;;;;5058964;28;20462;-60
2022/03/30 11:50:24;;;;;;;54.63;30.63;;;9.70;99.90;;;;;;5077288;28;20027;-61
2022/03/30 11:52:55;;;;;;;55.42;29.02;;;9.80;99.90;;;;;;5077668;28;20046;-57
2022/03/30 11:55:21;;;;;;;53.65;31.20;;;9.90;99.90;;;;;;5077103;28;20111;-61
2022/03/30 11:57:49;;;;;;;53.55;30.15;;;10.00;99.90;;;;;;5060114;28;20483;-63
2022/03/30 12:00:16;;;;;;;54.88;30.70;;;10.10;99.90;;;;;;5059591;28;20033;-59
2022/03/30 12:02:43;;;;;;;50.47;28.15;;;10.20;99.90;;;;;;5059556;28;20031;-59
2022/03/30 12:05:10;;;;;;;51.42;27.90;;;10.20;99.90;;;;;;5060597;28;20036;-59
2022/03/30 12:07:38;;;;;;;49.70;28.70;;;10.20;99.90;;;;;;5078673;28;20070;-58
2022/03/30 12:10:06;;;;;;;50.40;28.17;;;10.40;99.90;;;;;;5078599;28;20052;-58
2022/03/30 12:12:36;;;;;;;49.75;28.75;;;10.40;99.90;;;;;;5079657;28;20029;-60
2022/03/30 12:15:06;;;;;;;50.78;28.42;;;10.50;99.90;;;;;;5077962;28;20386;-60
2022/03/30 12:17:33;;;;;;;47.78;27.52;;;10.60;99.90;;;;;;5079085;28;20451;-59
2022/03/30 12:20:02;;;;;;;50.75;28.13;;;10.50;99.90;;;;;;5079148;28;20112;-61
2022/03/30 12:22:29;;;;;;;49.85;29.65;;;10.50;99.90;;;;;;5077729;28;20411;-60
2022/03/30 12:24:55;;;;;;;43.55;26.38;;;10.60;99.90;;;;;;5061546;28;20044;-61
2022/03/30 12:27:22;;;;;;;45.88;27.40;;;10.70;99.90;;;;;;5078518;28;20082;-61
2022/03/30 12:29:48;;;;;;;45.22;25.80;;;10.70;99.90;;;;;;5078578;28;20074;-57
2022/03/30 12:32:15;;;;;;;46.88;26.50;;;10.80;99.90;;;;;;5059644;28;20025;-59
2022/03/30 12:34:42;;;;;;;50.72;27.92;;;10.90;99.90;;;;;;5078155;28;20035;-59
2022/03/30 12:37:10;;;;;;;44.83;25.95;;;11.00;99.90;;;;;;5079064;28;20067;-62
2022/03/30 12:39:44;;;;;;;42.10;25.83;;;10.70;99.90;;;;;;5078456;28;20020;-61
2022/03/30 12:42:25;;;;;;;45.20;26.70;;;10.80;99.90;;;;;;5078808;28;20025;-62